Alameda, New Mexico
Current Conditions -  °F | °C
As of 3:35 AM on Friday 31 Oct 2014 (Local Time) from KAEG Reporting Station
Clear Clear  
Wind Chill: 50°   Ceiling: Unl
Heat Index: 50°   Visibility: 10mi
Dew Point: 25°   Wind: 12mph
Humidity: 38%   Direction: 110°ESE
Pressure: 30.37"   Gusts: NA
Location:  35.1991°N, 106.662°W
Report Text: KAEG 310935Z AUTO 11010KT 10SM CLR 10/M04 A3037 RMK AO2 T01011038
Loading
Personal Weather Stations






























Interactive Weather Map
Tropical Storm Tracking
New forecast layout! Learn more

10-Day Weather Forecast

Advertisements
Track Severe Weather on mobile